createdAt,value
2019-04-11T00:00:11.792Z,1
2019-04-11T00:00:47.975Z,0.7
2019-04-11T00:01:51.230Z,0.6
2019-04-11T00:02:00.393Z,0.8
2019-04-11T00:02:34.682Z,0.9
2019-04-11T00:03:11.834Z,0.8
2019-04-11T00:03:46.822Z,0.8
2019-04-11T00:04:24.128Z,0.8
2019-04-11T00:04:59.571Z,0.9
2019-04-11T00:05:36.975Z,1
2019-04-11T00:06:11.854Z,0.9
2019-04-11T00:06:47.766Z,0.9
2019-04-11T00:07:23.229Z,0.8
2019-04-11T00:08:02.018Z,0.8
2019-04-11T00:08:38.781Z,0.8
2019-04-11T00:09:11.023Z,0.8
2019-04-11T00:09:49.779Z,0.9
2019-04-11T00:10:24.715Z,0.9
2019-04-11T00:10:59.597Z,1.1
2019-04-11T00:11:36.021Z,1.3
2019-04-11T00:12:12.256Z,1.1
2019-04-11T00:12:47.222Z,0.8
2019-04-11T00:13:34.336Z,0.8
2019-04-11T00:13:59.775Z,0.8
2019-04-11T00:14:35.625Z,0.9
2019-04-11T00:15:12.624Z,0.9
2019-04-11T00:15:46.703Z,0.8
2019-04-11T00:16:23.947Z,0.8
2019-04-11T00:16:58.878Z,0.8
2019-04-11T00:17:35.973Z,1.1
2019-04-11T00:18:11.264Z,0.9
2019-04-11T00:18:48.877Z,0.8
2019-04-11T00:19:24.229Z,0.8
2019-04-11T00:19:59.761Z,0.9
2019-04-11T00:20:34.656Z,0.8
2019-04-11T00:21:12.528Z,0.8
2019-04-11T00:21:47.524Z,0.8
2019-04-11T00:22:23.865Z,0.8
2019-04-11T00:22:59.639Z,0.8
2019-04-11T00:23:36.150Z,0.8
2019-04-11T00:24:11.396Z,0.8
2019-04-11T00:24:47.662Z,0.8
2019-04-11T00:25:23.694Z,0.9
2019-04-11T00:25:59.972Z,1
2019-04-11T00:26:34.648Z,0.9
2019-04-11T00:27:11.574Z,0.8
2019-04-11T00:27:46.717Z,0.8
2019-04-11T00:28:23.939Z,0.8
2019-04-11T00:28:59.145Z,0.8
2019-04-11T00:29:36.321Z,0.8
2019-04-11T00:30:10.906Z,0.8
2019-04-11T00:30:46.730Z,0.8
2019-04-11T00:31:23.762Z,0.9
2019-04-11T00:31:58.806Z,0.8
2019-04-11T00:32:35.780Z,0.8
2019-04-11T00:33:10.760Z,0.9
2019-04-11T00:33:48.636Z,0.9
2019-04-11T00:34:23.724Z,0.9
2019-04-11T00:34:59.885Z,0.8
2019-04-11T00:35:35.763Z,0.8
2019-04-11T00:36:12.339Z,0.8
2019-04-11T00:36:48.170Z,0.9
2019-04-11T00:37:24.981Z,0.9
2019-04-11T00:37:59.836Z,0.8
2019-04-11T00:38:36.046Z,0.8
2019-04-11T00:39:12.964Z,0.8
2019-04-11T00:39:47.677Z,0.8
2019-04-11T00:40:22.662Z,0.8
2019-04-11T00:40:59.971Z,0.8
2019-04-11T00:41:35.110Z,0.8
2019-04-11T00:42:11.114Z,0.8
2019-04-11T00:42:47.835Z,0.8
2019-04-11T00:43:43.827Z,0.6
2019-04-11T00:44:00.530Z,0.6
2019-04-11T00:44:35.543Z,0.8
2019-04-11T00:45:11.906Z,0.8
2019-04-11T00:45:47.489Z,0.9
2019-04-11T00:46:24.465Z,1.1
2019-04-11T00:47:00.464Z,0.8
2019-04-11T00:47:35.766Z,0.9
2019-04-11T00:48:11.790Z,0.9
2019-04-11T00:48:48.025Z,0.9
2019-04-11T00:49:22.834Z,0.4
2019-04-11T00:49:59.621Z,0.6
2019-04-11T00:50:35.758Z,0.9
2019-04-11T00:51:11.649Z,0.9
2019-04-11T00:51:47.705Z,0.8
2019-04-11T00:52:23.841Z,0.8
2019-04-11T00:52:58.841Z,0.8
2019-04-11T00:53:36.082Z,0.8
2019-04-11T00:54:11.621Z,0.8
2019-04-11T00:54:47.724Z,0.9
2019-04-11T00:55:23.715Z,0.9
2019-04-11T00:55:59.776Z,0.9
2019-04-11T00:56:35.564Z,0.8
2019-04-11T00:57:10.941Z,0.9
2019-04-11T00:57:47.885Z,0.9
2019-04-11T00:58:22.890Z,0.8
2019-04-11T00:59:00.172Z,0.9
2019-04-11T00:59:35.206Z,0.9
2019-04-11T01:00:12.909Z,0.8
2019-04-11T01:00:48.162Z,0.8
2019-04-11T01:01:23.850Z,0.8
2019-04-11T01:02:00.743Z,0.8
2019-04-11T01:02:35.677Z,0.9
2019-04-11T01:03:11.960Z,0.8
2019-04-11T01:03:48.008Z,1
2019-04-11T01:04:23.695Z,1
2019-04-11T01:04:59.747Z,0.8
2019-04-11T01:05:34.700Z,0.8
2019-04-11T01:06:11.887Z,0.9
2019-04-11T01:06:47.531Z,1
2019-04-11T01:07:23.531Z,1
2019-04-11T01:07:59.905Z,0.8
2019-04-11T01:08:35.600Z,0.8
2019-04-11T01:09:12.956Z,0.9
2019-04-11T01:09:46.903Z,0.9
2019-04-11T01:10:23.123Z,0.9
2019-04-11T01:10:59.848Z,0.6
2019-04-11T01:11:36.178Z,0.6
2019-04-11T01:12:11.935Z,0.8
2019-04-11T01:12:47.739Z,0.8
2019-04-11T01:13:23.577Z,0.7
2019-04-11T01:14:00.025Z,0.9
2019-04-11T01:14:38.946Z,0.9
2019-04-11T01:15:11.717Z,0.9
2019-04-11T01:15:48.738Z,0.8
2019-04-11T01:16:23.770Z,1
2019-04-11T01:17:00.794Z,1
2019-04-11T01:17:34.697Z,0.9
2019-04-11T01:18:11.669Z,1
2019-04-11T01:18:47.304Z,1.1
2019-04-11T01:19:23.390Z,1
2019-04-11T01:19:59.899Z,0.8
2019-04-11T01:20:35.778Z,0.9
2019-04-11T01:21:12.151Z,0.8
2019-04-11T01:21:46.996Z,0.8
2019-04-11T01:22:23.079Z,0.8
2019-04-11T01:22:59.228Z,0.8
2019-04-11T01:23:35.820Z,0.8
2019-04-11T01:24:11.876Z,0.8
2019-04-11T01:24:46.866Z,0.6
2019-04-11T01:25:24.277Z,0.8
2019-04-11T01:26:01.071Z,0.8
2019-04-11T01:26:36.916Z,0.8
2019-04-11T01:27:11.777Z,0.8
2019-04-11T01:27:47.744Z,0.6
2019-04-11T01:28:23.465Z,0.6
2019-04-11T01:29:00.665Z,0.8
2019-04-11T01:29:35.857Z,0.6
2019-04-11T01:30:11.957Z,0.7
2019-04-11T01:30:47.939Z,0.8
2019-04-11T01:31:22.710Z,0.8
2019-04-11T01:32:00.096Z,0.8
2019-04-11T01:32:35.497Z,0.8
2019-04-11T01:33:11.887Z,0.8
2019-04-11T01:33:48.131Z,0.8
2019-04-11T01:34:22.665Z,0.9
2019-04-11T01:34:59.733Z,0.9
2019-04-11T01:35:35.246Z,0.8
2019-04-11T01:36:15.341Z,0.8
2019-04-11T01:36:47.695Z,1.1
2019-04-11T01:37:23.650Z,1.1
2019-04-11T01:37:59.800Z,0.8
2019-04-11T01:38:36.618Z,0.8
2019-04-11T01:39:12.473Z,0.8
2019-04-11T01:39:47.704Z,0.8
2019-04-11T01:40:23.910Z,0.6
2019-04-11T01:41:00.022Z,0.6
2019-04-11T01:41:36.102Z,0.8
2019-04-11T01:42:11.839Z,0.8
2019-04-11T01:42:47.897Z,0.8
2019-04-11T01:43:22.719Z,0.8
2019-04-11T01:44:08.659Z,0.8
2019-04-11T01:44:34.996Z,0.8
2019-04-11T01:45:12.028Z,0.8
2019-04-11T01:45:46.704Z,1
2019-04-11T01:46:24.061Z,1.3
2019-04-11T01:46:59.304Z,0.8
2019-04-11T01:47:37.862Z,0.9
2019-04-11T01:48:11.896Z,1
2019-04-11T01:48:47.719Z,1.2
2019-04-11T01:49:23.719Z,1.2
2019-04-11T01:49:59.507Z,1
2019-04-11T01:50:36.707Z,1.1
2019-04-11T01:51:11.853Z,1.3
2019-04-11T01:51:47.893Z,0.8
2019-04-11T01:52:24.429Z,1.2
2019-04-11T01:53:00.288Z,1.2
2019-04-11T01:53:37.251Z,0.8
2019-04-11T01:54:11.965Z,0.9
2019-04-11T01:54:47.937Z,1
2019-04-11T01:55:22.656Z,1.3
2019-04-11T01:55:59.617Z,1.2
2019-04-11T01:56:34.706Z,1.1
2019-04-11T01:57:11.703Z,1
2019-04-11T01:57:47.258Z,0.9
2019-04-11T01:58:23.281Z,0.8
2019-04-11T01:58:59.898Z,0.9
2019-04-11T01:59:35.896Z,1.1
2019-04-11T02:00:12.814Z,1.2
2019-04-11T02:00:46.746Z,1.2
2019-04-11T02:01:24.796Z,1.4
2019-04-11T02:01:58.692Z,1.3
2019-04-11T02:02:35.516Z,1
2019-04-11T02:03:11.485Z,0.9
2019-04-11T02:03:47.841Z,0.9
2019-04-11T02:04:23.964Z,1.2
2019-04-11T02:05:00.637Z,1.2
2019-04-11T02:05:36.868Z,1.2
2019-04-11T02:06:12.059Z,1.2
2019-04-11T02:06:47.793Z,1
2019-04-11T02:07:24.653Z,1
2019-04-11T02:08:00.727Z,0.9
2019-04-11T02:08:36.013Z,0.7
2019-04-11T02:09:11.854Z,0.7
2019-04-11T02:09:48.365Z,0.8
2019-04-11T02:10:22.753Z,1
2019-04-11T02:11:01.093Z,0.9
2019-04-11T02:11:34.810Z,0.4
2019-04-11T02:12:11.883Z,0.4
2019-04-11T02:12:47.934Z,0.8
2019-04-11T02:13:23.550Z,0.9
2019-04-11T02:14:21.085Z,0.8
2019-04-11T02:14:35.756Z,0.8
2019-04-11T02:15:12.231Z,0.4
2019-04-11T02:15:48.144Z,0.4
2019-04-11T02:16:23.794Z,0.6
2019-04-11T02:17:01.144Z,0.8
2019-04-11T02:17:36.727Z,0.8
2019-04-11T02:18:11.721Z,0.8
2019-04-11T02:18:47.508Z,0.8
2019-04-11T02:19:23.775Z,0.8
2019-04-11T02:20:00.621Z,0.8
2019-04-11T02:20:34.681Z,1
2019-04-11T02:21:11.820Z,1
2019-04-11T02:21:47.047Z,0.8
2019-04-11T02:22:24.325Z,0.9
2019-04-11T02:22:59.858Z,1
2019-04-11T02:23:35.829Z,1.1
2019-04-11T02:24:11.700Z,0.9
2019-04-11T02:24:47.900Z,0.8
2019-04-11T02:25:24.721Z,0.8
2019-04-11T02:25:58.759Z,0.8
2019-04-11T02:26:36.084Z,0.8
2019-04-11T02:27:11.640Z,0.8
2019-04-11T02:27:48.101Z,0.8
2019-04-11T02:28:24.159Z,0.4
2019-04-11T02:29:01.274Z,0.6
2019-04-11T02:29:35.944Z,0.8
2019-04-11T02:30:20.869Z,0.8
2019-04-11T02:30:53.496Z,0.8
2019-04-11T02:31:24.305Z,0.7
2019-04-11T02:32:07.542Z,1.1
2019-04-11T02:32:37.749Z,1
2019-04-11T02:33:18.346Z,0.8
2019-04-11T02:33:51.665Z,0.8
2019-04-11T02:34:27.279Z,0.8
2019-04-11T02:35:08.453Z,0.6
2019-04-11T02:35:40.350Z,0.4
2019-04-11T02:36:14.342Z,0.6
2019-04-11T02:36:47.123Z,0.8
2019-04-11T02:37:26.779Z,0.8
2019-04-11T02:38:00.599Z,0.8
2019-04-11T02:38:41.167Z,0.8
2019-04-11T02:39:22.476Z,0.9
2019-04-11T02:39:53.513Z,0.8
2019-04-11T02:40:27.160Z,0.8
2019-04-11T02:40:58.883Z,0.8
2019-04-11T02:41:42.020Z,0.9
2019-04-11T02:42:12.226Z,0.9
2019-04-11T02:42:52.197Z,0.9
2019-04-11T02:43:26.395Z,0.8
2019-04-11T02:44:05.724Z,0.7
2019-04-11T02:45:39.619Z,0.6
2019-04-11T02:46:08.721Z,0.6
2019-04-11T02:46:26.621Z,0.7
2019-04-11T02:47:05.031Z,0.7
2019-04-11T02:47:26.693Z,0.2
2019-04-11T02:47:48.104Z,0.2
2019-04-11T02:48:16.131Z,0.7
2019-04-11T02:48:46.746Z,1
2019-04-11T02:49:28.358Z,0.9
2019-04-11T02:50:00.886Z,0.9
2019-04-11T02:50:41.107Z,1
2019-04-11T02:51:14.369Z,0.9
2019-04-11T02:51:53.084Z,0.5
2019-04-11T02:52:28.225Z,0.2
2019-04-11T02:53:02.696Z,0.4
2019-04-11T02:53:36.976Z,0.7
2019-04-11T02:54:17.735Z,0.8
2019-04-11T02:54:49.867Z,0.2
2019-04-11T02:55:23.221Z,0.4
2019-04-11T02:56:03.134Z,0.6
2019-04-11T02:56:37.087Z,0.9
2019-04-11T02:57:15.917Z,1.1
2019-04-11T02:57:50.833Z,1.1
2019-04-11T02:58:29.487Z,1
2019-04-11T02:59:05.415Z,1.1
2019-04-11T02:59:38.737Z,1.3
2019-04-11T03:00:15.324Z,1
2019-04-11T03:00:46.918Z,0.8
2019-04-11T03:01:27.993Z,0.9
2019-04-11T03:02:01.859Z,0.6
2019-04-11T03:02:41.617Z,0.3
2019-04-11T03:03:14.597Z,0.9
2019-04-11T03:03:51.801Z,0.7
2019-04-11T03:04:28.658Z,0.6
2019-04-11T03:05:02.378Z,0.9
2019-04-11T03:05:41.303Z,0.7
2019-04-11T03:06:12.682Z,0.7
2019-04-11T03:06:51.836Z,1.1
2019-04-11T03:07:25.511Z,1.1
2019-04-11T03:08:11.331Z,0.9
2019-04-11T03:08:42.714Z,0.9
2019-04-11T03:09:17.192Z,0.9
2019-04-11T03:09:51.282Z,0.8
2019-04-11T03:10:24.649Z,0.9
2019-04-11T03:11:02.318Z,0.9
2019-04-11T03:11:35.545Z,0.8
2019-04-11T03:12:15.561Z,0.8
2019-04-11T03:12:49.196Z,0.8
2019-04-11T03:13:29.024Z,0.7
2019-04-11T03:14:04.434Z,0.7
2019-04-11T03:15:37.156Z,1
2019-04-11T03:15:56.637Z,1
2019-04-11T03:16:51.545Z,0.8
2019-04-11T03:17:10.566Z,0.9
2019-04-11T03:17:31.202Z,1
2019-04-11T03:17:48.585Z,0.9
2019-04-11T03:19:04.797Z,0.8
2019-04-11T03:19:29.413Z,0.9
2019-04-11T03:20:19.370Z,0.9
2019-04-11T03:20:40.670Z,0.8
2019-04-11T03:21:02.461Z,0.9
2019-04-11T03:21:26.755Z,1.4
2019-04-11T03:21:52.124Z,1.2
2019-04-11T03:22:27.162Z,0.9
2019-04-11T03:23:13.905Z,0.8
2019-04-11T03:23:41.425Z,0.8
2019-04-11T03:24:13.388Z,1
2019-04-11T03:24:53.283Z,0.6
2019-04-11T03:25:25.180Z,0.7
2019-04-11T03:26:00.847Z,0.6
2019-04-11T03:26:38.459Z,0.6
2019-04-11T03:27:13.004Z,0.8
2019-04-11T03:27:51.712Z,1.1
2019-04-11T03:28:33.919Z,1.1
2019-04-11T03:29:06.271Z,0.8
2019-04-11T03:29:38.405Z,0.8
2019-04-11T03:30:53.894Z,1
2019-04-11T03:33:42.539Z,1
2019-04-11T03:35:08.821Z,0.8
2019-04-11T03:35:19.631Z,0.8
2019-04-11T03:36:31.507Z,0.8
2019-04-11T03:37:05.858Z,0.8
2019-04-11T03:37:22.904Z,0.9
2019-04-11T03:37:53.317Z,1.2
2019-04-11T03:37:58.193Z,0.9
2019-04-11T03:37:58.218Z,1
2019-04-11T03:38:22.788Z,0.9
2019-04-11T03:39:00.106Z,0.8
2019-04-11T03:39:14.390Z,1.1
2019-04-11T03:39:43.347Z,1.1
2019-04-11T03:40:21.830Z,0.9
2019-04-11T03:40:30.296Z,0.9
2019-04-11T03:41:37.174Z,0.8
2019-04-11T03:42:09.329Z,1.1
2019-04-11T03:42:42.603Z,1
2019-04-11T03:43:14.977Z,1.1
2019-04-11T03:43:41.648Z,1.1
2019-04-11T03:44:08.429Z,1
2019-04-11T03:44:30.536Z,0.9
2019-04-11T03:45:32.429Z,1.1
2019-04-11T03:46:19.221Z,1.4
2019-04-11T03:46:58.215Z,1.1
2019-04-11T03:47:20.167Z,0.9
2019-04-11T03:47:57.258Z,0.9
2019-04-11T03:48:32.786Z,0.8
2019-04-11T03:49:03.353Z,0.9
2019-04-11T03:49:39.400Z,1.1
2019-04-11T03:49:55.736Z,0.9
2019-04-11T03:50:23.613Z,0.8
2019-04-11T03:50:42.273Z,0.8
2019-04-11T03:51:16.720Z,0.8
2019-04-11T03:51:50.197Z,0.8
2019-04-11T03:52:26.368Z,1
2019-04-11T03:53:09.223Z,1.4
2019-04-11T03:53:37.730Z,1.2
2019-04-11T03:54:17.450Z,0.8
2019-04-11T03:54:50.382Z,0.9
2019-04-11T03:55:30.005Z,0.9
2019-04-11T03:56:03.202Z,0.9
2019-04-11T03:56:39.187Z,0.9
2019-04-11T03:57:10.829Z,0.8
2019-04-11T03:57:54.161Z,0.9
2019-04-11T03:58:26.271Z,1.1
2019-04-11T03:58:59.595Z,1.1
2019-04-11T03:59:41.027Z,0.9
2019-04-11T04:00:15.971Z,1
2019-04-11T04:00:55.497Z,1.2
2019-04-11T04:01:27.418Z,1.1
2019-04-11T04:02:01.156Z,1
2019-04-11T04:02:40.876Z,0.9
2019-04-11T04:03:14.793Z,1
2019-04-11T04:03:53.471Z,1
2019-04-11T04:04:29.087Z,0.9
2019-04-11T04:05:03.479Z,1.3
2019-04-11T04:05:43.813Z,1.2
2019-04-11T04:06:12.614Z,0.8
2019-04-11T04:06:50.383Z,0.8
2019-04-11T04:07:25.134Z,0.8
2019-04-11T04:08:06.059Z,0.6
2019-04-11T04:08:39.188Z,0.4
2019-04-11T04:09:18.594Z,0.6
2019-04-11T04:09:48.654Z,1.3
2019-04-11T04:10:27.395Z,1.4
2019-04-11T04:11:01.120Z,1.2
2019-04-11T04:11:35.930Z,0.9
2019-04-11T04:12:15.751Z,0.8
2019-04-11T04:12:48.807Z,0.8
2019-04-11T04:13:32.129Z,0.8
2019-04-11T04:14:04.721Z,0.9
2019-04-11T04:14:42.946Z,0.8
2019-04-11T04:15:55.247Z,1
2019-04-11T04:16:32.096Z,1
2019-04-11T04:16:49.949Z,0.8
2019-04-11T04:17:10.144Z,0.9
2019-04-11T04:17:36.748Z,0.9
2019-04-11T04:18:16.778Z,0.8
2019-04-11T04:18:48.966Z,0.9
2019-04-11T04:19:32.615Z,0.5
2019-04-11T04:20:05.251Z,0.4
2019-04-11T04:20:38.997Z,1
2019-04-11T04:21:13.299Z,0.9
2019-04-11T04:21:51.269Z,0.8
2019-04-11T04:22:27.058Z,1
2019-04-11T04:23:02.655Z,1.2
2019-04-11T04:23:38.604Z,1.1
2019-04-11T04:24:11.603Z,0.5
2019-04-11T04:24:55.165Z,0.8
2019-04-11T04:25:26.380Z,0.9
2019-04-11T04:26:02.760Z,1
2019-04-11T04:26:36.328Z,1.1
2019-04-11T04:27:11.337Z,1
2019-04-11T04:27:51.546Z,1.2
2019-04-11T04:28:24.840Z,1.1
2019-04-11T04:29:04.296Z,1.1
2019-04-11T04:29:39.026Z,0.8
2019-04-11T04:30:18.013Z,0.9
2019-04-11T04:30:49.204Z,0.9
2019-04-11T04:31:26.538Z,0.5
2019-04-11T04:32:00.453Z,0.4
2019-04-11T04:32:36.468Z,0.8
2019-04-11T04:33:16.827Z,0.8
2019-04-11T04:33:49.111Z,0.8
2019-04-11T04:34:28.148Z,0.9
2019-04-11T04:35:02.113Z,0.9
2019-04-11T04:35:42.159Z,0.8
2019-04-11T04:36:18.222Z,0.8
2019-04-11T04:36:51.734Z,0.9
2019-04-11T04:37:27.392Z,1.1
2019-04-11T04:38:00.740Z,0.6
2019-04-11T04:38:41.625Z,0.6
2019-04-11T04:39:13.432Z,0.9
2019-04-11T04:40:17.468Z,0.8
2019-04-11T04:41:22.018Z,0.9
2019-04-11T04:41:43.713Z,0.6
2019-04-11T04:42:13.170Z,0.7
2019-04-11T04:42:44.196Z,0.7
2019-04-11T04:43:00.539Z,0.9
2019-04-11T04:43:29.057Z,1
2019-04-11T04:44:02.208Z,0.8
2019-04-11T04:44:35.478Z,0.8
2019-04-11T04:45:16.690Z,1.1
2019-04-11T04:46:46.838Z,1.2
2019-04-11T04:47:16.352Z,1.1
2019-04-11T04:47:33.893Z,1.1
2019-04-11T04:48:04.373Z,1.2
2019-04-11T04:48:26.675Z,1.1
2019-04-11T04:48:51.826Z,0.8
2019-04-11T04:49:24.735Z,1.1
2019-04-11T04:50:06.146Z,1.5
2019-04-11T04:50:39.971Z,1.4
2019-04-11T04:51:20.032Z,1.1
2019-04-11T04:51:48.601Z,1.1
2019-04-11T04:52:23.051Z,1.4
2019-04-11T04:53:03.175Z,1.5
2019-04-11T04:53:36.521Z,1.4
2019-04-11T04:54:14.081Z,1.3
2019-04-11T04:54:49.423Z,1
2019-04-11T04:55:30.259Z,1.3
2019-04-11T04:56:00.593Z,1.7
2019-04-11T04:56:41.408Z,1.6
2019-04-11T04:57:15.390Z,1.5
2019-04-11T04:57:48.416Z,1.3
2019-04-11T04:58:26.803Z,1.5
2019-04-11T04:59:00.098Z,1.4
2019-04-11T04:59:42.439Z,1.3
2019-04-11T05:00:15.344Z,1.5
2019-04-11T05:00:53.686Z,1.3
2019-04-11T05:01:28.475Z,1.3
2019-04-11T05:02:06.082Z,1.6
2019-04-11T05:02:41.943Z,1.7
2019-04-11T05:03:11.493Z,1.1
2019-04-11T05:03:51.242Z,0.9
2019-04-11T05:04:24.533Z,1
2019-04-11T05:05:05.899Z,1.3
2019-04-11T05:05:38.846Z,0.7
2019-04-11T05:06:15.797Z,0.6
2019-04-11T05:06:54.891Z,0.9
2019-04-11T05:07:34.968Z,1.2
2019-04-11T05:08:03.104Z,1.3
2019-04-11T05:08:35.886Z,1.2
2019-04-11T05:09:14.608Z,1.2
2019-04-11T05:09:49.845Z,1.3
2019-04-11T05:10:26.207Z,1.4
2019-04-11T05:10:58.774Z,1.1
2019-04-11T05:11:38.115Z,1
2019-04-11T05:12:13.812Z,0.9
2019-04-11T05:12:47.003Z,0.8
2019-04-11T05:13:25.092Z,0.8
2019-04-11T05:14:03.539Z,1.1
2019-04-11T05:14:39.788Z,1.5
2019-04-11T05:15:12.439Z,1.5
2019-04-11T05:15:46.837Z,1.2
2019-04-11T05:16:22.866Z,1
2019-04-11T05:17:00.058Z,0.9
2019-04-11T05:17:38.236Z,1
2019-04-11T05:18:20.182Z,1.4
2019-04-11T05:18:46.878Z,1.4
2019-04-11T05:19:25.738Z,1.2
2019-04-11T05:19:59.457Z,1.1
2019-04-11T05:20:35.041Z,1.1
2019-04-11T05:21:11.520Z,1.6
2019-04-11T05:21:48.041Z,1.1
2019-04-11T05:22:24.543Z,0.9
2019-04-11T05:22:59.917Z,1
2019-04-11T05:23:34.845Z,1
2019-04-11T05:24:12.443Z,1.1
2019-04-11T05:24:48.034Z,1.1
2019-04-11T05:25:23.244Z,0.9
2019-04-11T05:26:03.390Z,1
2019-04-11T05:26:35.978Z,1.2
2019-04-11T05:27:12.480Z,0.9
2019-04-11T05:27:48.058Z,0.9
2019-04-11T05:28:23.998Z,1.1
2019-04-11T05:28:58.819Z,1.5
2019-04-11T05:29:36.069Z,0.9
2019-04-11T05:30:12.030Z,0.8
2019-04-11T05:30:46.951Z,1.4
2019-04-11T05:31:24.702Z,2
2019-04-11T05:31:59.770Z,1.8
2019-04-11T05:32:36.004Z,1.3
2019-04-11T05:33:12.109Z,1
2019-04-11T05:33:48.065Z,1.2
2019-04-11T05:34:24.077Z,1.3
2019-04-11T05:35:00.388Z,1.2
2019-04-11T05:35:36.621Z,1.1
2019-04-11T05:36:10.944Z,1.3
2019-04-11T05:36:47.990Z,1.1
2019-04-11T05:37:23.808Z,1.2
2019-04-11T05:37:59.862Z,1.2
2019-04-11T05:38:35.662Z,1
2019-04-11T05:39:12.515Z,1.1
2019-04-11T05:39:46.849Z,1.2
2019-04-11T05:40:24.173Z,0.8
2019-04-11T05:40:59.350Z,0.8
2019-04-11T05:41:34.994Z,1.1
2019-04-11T05:42:21.108Z,1.3
2019-04-11T05:42:56.028Z,1
2019-04-11T05:43:38.879Z,1.1
2019-04-11T05:44:11.189Z,1.2
2019-04-11T05:44:42.898Z,1.2
2019-04-11T05:45:25.980Z,1.1
2019-04-11T05:45:58.209Z,0.9
2019-04-11T05:46:56.124Z,0.8
2019-04-11T05:47:07.132Z,1.1
2019-04-11T05:47:37.233Z,1.3
2019-04-11T05:48:12.108Z,1.3
2019-04-11T05:48:47.931Z,1.2
2019-04-11T05:49:24.182Z,0.9
2019-04-11T05:50:00.998Z,1.1
2019-04-11T05:50:35.795Z,1.1
2019-04-11T05:51:12.783Z,1.2
2019-04-11T05:51:51.901Z,1.4
2019-04-11T05:52:23.976Z,1.5
2019-04-11T05:53:05.824Z,1.4
2019-04-11T05:53:39.143Z,1.2
2019-04-11T05:54:12.729Z,0.9
2019-04-11T05:54:52.732Z,1
2019-04-11T05:55:23.617Z,0.8
2019-04-11T05:55:59.976Z,0.9
2019-04-11T05:56:37.253Z,1
2019-04-11T05:57:13.173Z,1.3
2019-04-11T05:57:47.757Z,1.4
2019-04-11T05:58:24.058Z,1.2
2019-04-11T05:59:00.092Z,1
2019-04-11T05:59:35.803Z,1.5
2019-04-11T06:00:12.009Z,2.1
2019-04-11T06:00:48.773Z,2
2019-04-11T06:01:24.639Z,1.8
2019-04-11T06:02:09.819Z,1.6
2019-04-11T06:02:37.332Z,1.5
2019-04-11T06:03:10.944Z,1.3
2019-04-11T06:03:53.828Z,0.9
2019-04-11T06:04:30.447Z,1
2019-04-11T06:04:58.761Z,1.2
2019-04-11T06:05:40.927Z,1.2
2019-04-11T06:06:12.730Z,1.5
2019-04-11T06:06:47.431Z,1.4
2019-04-11T06:07:25.064Z,1.4
2019-04-11T06:07:59.912Z,1.1
2019-04-11T06:08:35.942Z,1
2019-04-11T06:09:16.620Z,0.8
2019-04-11T06:09:48.001Z,0.9
2019-04-11T06:10:23.800Z,1.1
2019-04-11T06:11:04.243Z,0.7
2019-04-11T06:11:36.662Z,1
2019-04-11T06:12:12.169Z,1.7
2019-04-11T06:12:46.824Z,0.8
2019-04-11T06:13:24.854Z,0.9
2019-04-11T06:14:07.657Z,1.2
2019-04-11T06:14:36.101Z,1.2
2019-04-11T06:15:12.095Z,1.1
2019-04-11T06:15:49.170Z,0.9
2019-04-11T06:16:50.634Z,1.1
2019-04-11T06:17:01.094Z,1.3
2019-04-11T06:17:36.426Z,1.3
2019-04-11T06:18:32.843Z,1
2019-04-11T06:18:47.837Z,1
2019-04-11T06:19:24.812Z,1.3
2019-04-11T06:19:58.956Z,1.3
2019-04-11T06:20:36.077Z,1.2
2019-04-11T06:21:12.156Z,1.1
2019-04-11T06:21:48.181Z,1.1
2019-04-11T06:22:23.990Z,1.2
2019-04-11T06:23:00.311Z,0.9
2019-04-11T06:23:36.959Z,0.9
2019-04-11T06:24:11.935Z,0.9
2019-04-11T06:24:47.886Z,0.8
2019-04-11T06:25:29.973Z,0.8
2019-04-11T06:26:02.642Z,0.8
2019-04-11T06:26:35.447Z,0.9
2019-04-11T06:27:16.936Z,1.1
2019-04-11T06:27:49.233Z,1
2019-04-11T06:28:24.014Z,1
2019-04-11T06:29:00.965Z,1.2
2019-04-11T06:29:36.732Z,0.9
2019-04-11T06:30:10.786Z,0.7
2019-04-11T06:30:46.978Z,0.6
2019-04-11T06:31:26.559Z,0.8
2019-04-11T06:31:59.915Z,1
2019-04-11T06:32:35.889Z,1.4
2019-04-11T06:33:12.146Z,1.4
2019-04-11T06:33:48.979Z,1.2
2019-04-11T06:34:27.383Z,1.2
2019-04-11T06:34:59.976Z,1.1
2019-04-11T06:35:36.133Z,1.6
2019-04-11T06:36:12.021Z,0.8
2019-04-11T06:36:49.837Z,0.7
2019-04-11T06:37:22.893Z,1
2019-04-11T06:38:02.350Z,1
2019-04-11T06:38:35.192Z,1
2019-04-11T06:39:15.478Z,0.9
2019-04-11T06:39:47.864Z,1.3
2019-04-11T06:40:24.814Z,1.6
2019-04-11T06:40:59.865Z,1.8
2019-04-11T06:41:36.631Z,1.3
2019-04-11T06:42:12.677Z,0.8
2019-04-11T06:42:48.116Z,1.3
2019-04-11T06:43:23.894Z,1.3
2019-04-11T06:44:00.328Z,0.8
2019-04-11T06:44:35.083Z,0.8
2019-04-11T06:45:12.030Z,0.8
2019-04-11T06:45:48.036Z,0.8
2019-04-11T06:46:23.164Z,0.8
2019-04-11T06:47:05.414Z,0.8
2019-04-11T06:47:36.580Z,0.8
2019-04-11T06:48:12.068Z,0.8
2019-04-11T06:48:47.953Z,0.9
2019-04-11T06:49:24.547Z,0.8
2019-04-11T06:50:00.303Z,1
2019-04-11T06:50:35.967Z,1.2
2019-04-11T06:51:12.055Z,1.3
2019-04-11T06:51:48.119Z,1.2
2019-04-11T06:52:22.862Z,0.9
2019-04-11T06:53:00.217Z,0.8
2019-04-11T06:53:36.383Z,0.9
2019-04-11T06:54:10.944Z,1.4
2019-04-11T06:54:47.992Z,1.4
2019-04-11T06:55:23.467Z,1.1
2019-04-11T06:56:03.289Z,1.2
2019-04-11T06:56:36.662Z,1.1
2019-04-11T06:57:12.051Z,1
2019-04-11T06:57:47.971Z,1.1
2019-04-11T06:58:23.990Z,1.2
2019-04-11T06:58:59.950Z,1.2
2019-04-11T06:59:36.205Z,1.3
2019-04-11T07:00:10.821Z,1.5
2019-04-11T07:00:47.989Z,1.5
2019-04-11T07:01:23.245Z,1.5
2019-04-11T07:02:22.656Z,1.4
2019-04-11T07:02:34.960Z,0.9
2019-04-11T07:03:30.427Z,1
2019-04-11T07:03:48.818Z,1.4
2019-04-11T07:04:22.830Z,1.8
2019-04-11T07:05:00.044Z,1.9
2019-04-11T07:05:35.939Z,1.4
2019-04-11T07:06:13.063Z,1
2019-04-11T07:06:47.834Z,0.8
2019-04-11T07:07:28.879Z,1.2
2019-04-11T07:08:00.243Z,2
2019-04-11T07:08:35.236Z,2.3
2019-04-11T07:09:10.854Z,1.6
2019-04-11T07:09:49.039Z,1.3
2019-04-11T07:10:24.246Z,1.6
2019-04-11T07:11:00.657Z,1.6
2019-04-11T07:11:35.961Z,1.3
2019-04-11T07:12:10.802Z,1.2
2019-04-11T07:12:47.860Z,1.4
2019-04-11T07:13:24.537Z,1
2019-04-11T07:13:59.067Z,1.2
2019-04-11T07:14:35.952Z,1.2
2019-04-11T07:15:12.129Z,1
2019-04-11T07:15:48.107Z,1.1
2019-04-11T07:16:22.880Z,1.3
2019-04-11T07:17:10.982Z,1.3
2019-04-11T07:17:36.827Z,1
2019-04-11T07:18:12.220Z,0.7
2019-04-11T07:18:48.366Z,1.2
2019-04-11T07:19:22.788Z,1.1
2019-04-11T07:19:58.770Z,1.1
2019-04-11T07:20:36.191Z,1.4
2019-04-11T07:21:11.539Z,1.4
2019-04-11T07:21:47.980Z,1.4
2019-04-11T07:22:23.897Z,1.7
2019-04-11T07:22:59.988Z,1.6
2019-04-11T07:23:34.863Z,1.6
2019-04-11T07:24:12.042Z,1.4
2019-04-11T07:24:47.947Z,1.1
2019-04-11T07:25:23.354Z,0.9
2019-04-11T07:26:00.185Z,1
2019-04-11T07:26:36.934Z,1
2019-04-11T07:27:11.942Z,1
2019-04-11T07:27:46.818Z,1.2
2019-04-11T07:28:23.763Z,1.3
2019-04-11T07:28:59.410Z,1.6
2019-04-11T07:29:34.826Z,1.5
2019-04-11T07:30:11.949Z,1.2
2019-04-11T07:30:48.106Z,1.5
2019-04-11T07:31:25.246Z,1.2
2019-04-11T07:31:58.781Z,1
2019-04-11T07:32:36.667Z,1.1
2019-04-11T07:33:13.281Z,0.6
2019-04-11T07:33:46.800Z,0.9
2019-04-11T07:34:23.896Z,1
2019-04-11T07:35:00.267Z,0.9
2019-04-11T07:35:36.167Z,0.7
2019-04-11T07:36:12.370Z,1.1
2019-04-11T07:36:48.522Z,0.9
2019-04-11T07:37:25.704Z,0.8
2019-04-11T07:37:59.113Z,1
2019-04-11T07:38:34.796Z,1
2019-04-11T07:39:12.461Z,0.9
2019-04-11T07:39:49.180Z,0.6
2019-04-11T07:40:24.420Z,0.8
2019-04-11T07:41:01.148Z,1.5
2019-04-11T07:41:35.025Z,1.6
2019-04-11T07:42:17.786Z,1.8
2019-04-11T07:42:51.793Z,2
2019-04-11T07:43:24.495Z,1.6
2019-04-11T07:43:59.325Z,1.2
2019-04-11T07:44:35.094Z,1.4
2019-04-11T07:45:17.097Z,1.7
2019-04-11T07:45:48.994Z,1.4
2019-04-11T07:46:24.251Z,0.9
2019-04-11T07:46:59.990Z,1
2019-04-11T07:47:36.921Z,1.3
2019-04-11T07:48:12.554Z,1.9
2019-04-11T07:48:47.727Z,1.8
2019-04-11T07:49:23.019Z,1.2
2019-04-11T07:50:00.294Z,0.8
2019-04-11T07:50:35.903Z,1
2019-04-11T07:51:11.830Z,1
2019-04-11T07:51:46.814Z,1.2
2019-04-11T07:52:22.844Z,1.3
2019-04-11T07:52:59.063Z,1.3
2019-04-11T07:53:37.051Z,1.1
2019-04-11T07:54:12.157Z,1
2019-04-11T07:54:48.029Z,1.2
2019-04-11T07:55:22.987Z,1.6
2019-04-11T07:56:05.381Z,1.8
2019-04-11T07:56:36.020Z,1.5
2019-04-11T07:57:11.409Z,1.9
2019-04-11T07:57:47.855Z,1.8
2019-04-11T07:58:24.186Z,1.5
2019-04-11T07:58:59.443Z,2
2019-04-11T07:59:34.793Z,1.4
2019-04-11T08:00:10.923Z,1
2019-04-11T08:00:55.930Z,1.4
2019-04-11T08:01:22.811Z,1.7
2019-04-11T08:02:00.036Z,2.2
2019-04-11T08:02:35.999Z,2.9
2019-04-11T08:03:10.833Z,2.7
2019-04-11T08:03:47.765Z,2.5
2019-04-11T08:04:23.693Z,2.4
2019-04-11T08:04:58.901Z,2.1
2019-04-11T08:05:36.865Z,2.3
2019-04-11T08:06:11.906Z,2.2
2019-04-11T08:06:47.881Z,2.1
2019-04-11T08:07:22.968Z,1.9
2019-04-11T08:07:59.958Z,1.9
2019-04-11T08:08:36.433Z,2.2
2019-04-11T08:09:10.770Z,1.6
2019-04-11T08:09:46.879Z,1.3
2019-04-11T08:10:23.608Z,1.5
2019-04-11T08:11:00.106Z,2
2019-04-11T08:11:35.798Z,2
2019-04-11T08:12:10.725Z,1.6
2019-04-11T08:12:48.219Z,1.3
2019-04-11T08:13:23.450Z,0.8
2019-04-11T08:13:59.960Z,0.9
2019-04-11T08:14:36.668Z,1.1
2019-04-11T08:15:10.810Z,1.3
2019-04-11T08:15:46.827Z,2.2
2019-04-11T08:16:23.351Z,2.1
2019-04-11T08:16:59.993Z,1.1
2019-04-11T08:17:44.637Z,1.2
2019-04-11T08:18:11.194Z,1.5
2019-04-11T08:18:46.747Z,1.4
2019-04-11T08:19:24.666Z,1.1
2019-04-11T08:20:00.104Z,1.2